.
WxDataArchive / Data Records for 2011-03-18
2011-03-17 March 2011 2011-03-19

Data Records for Friday, 18 March 2011

Time	Temp	Chill	HIndex	Humid	Dewpt	 Wind 	HiWind	WindDir	Rain 	Barom 
-----	----	-----	------	-----	-----	------	------	-------	-----	----- 
00:00	66.4	66.4	66.4	60	52.1	3	10	248	0.00	29.865 
00:05	66.4	66.4	66.4	60	52.1	3	6	248	0.00	29.865 
00:10	66.3	66.3	66.3	61	52.4	3	7	248	0.00	29.865 
00:15	66.3	66.3	66.3	61	52.4	4	11	270	0.00	29.858 
00:20	66.3	66.3	66.3	61	52.4	4	11	248	0.00	29.858 
00:25	66.1	66.1	66.1	61	52.3	3	11	248	0.00	29.858 
00:30	66.0	66.0	66.0	62	52.6	4	11	248	0.00	29.859 
00:35	66.0	66.0	66.0	62	52.6	3	9	248	0.00	29.859 
00:40	66.0	66.0	66.0	62	52.6	4	11	248	0.00	29.859 
00:45	66.0	66.0	66.0	62	52.6	5	17	248	0.00	29.857 
00:50	66.0	66.0	66.0	63	53.0	5	13	248	0.00	29.857 
00:55	66.0	66.0	66.0	63	53.0	4	10	270	0.00	29.857 
01:00	66.0	66.0	66.0	63	53.0	5	12	248	0.00	29.857 
01:05	65.8	65.8	65.8	64	53.3	4	12	248	0.00	29.857 
01:10	65.8	65.8	65.8	64	53.3	4	7	248	0.00	29.857 
01:15	65.8	65.8	65.8	64	53.3	4	12	248	0.00	29.857 
01:20	65.6	65.6	65.6	65	53.5	4	11	270	0.00	29.857 
01:25	65.6	65.6	65.6	65	53.5	3	10	248	0.00	29.857 
01:30	65.6	65.6	65.6	65	53.5	4	10	248	0.00	29.853 
01:35	65.5	65.5	65.5	66	53.8	3	7	248	0.00	29.853 
01:40	65.5	65.5	65.5	66	53.8	4	9	248	0.00	29.853 
01:45	65.3	65.3	65.3	67	54.1	5	13	248	0.00	29.855 
01:50	65.3	65.3	65.3	67	54.1	4	11	270	0.00	29.855 
01:55	65.3	65.3	65.3	68	54.5	5	13	270	0.00	29.855 
02:00	65.2	65.2	65.2	68	54.4	4	7	248	0.00	29.866 
02:05	65.2	65.2	65.2	68	54.4	4	12	248	0.00	29.866 
02:10	65.2	65.2	65.2	69	54.8	4	7	248	0.00	29.866 
02:15	65.2	65.2	65.2	69	54.8	4	11	270	0.00	29.869 
02:20	65.2	65.2	65.2	69	54.8	4	10	270	0.00	29.869 
02:25	65.2	65.2	65.2	70	55.2	4	12	248	0.00	29.869 
02:30	65.2	65.2	65.2	70	55.2	4	9	270	0.00	29.880 
02:35	65.0	65.0	65.0	71	55.4	4	6	270	0.00	29.880 
02:40	64.8	64.8	64.8	71	55.2	4	10	248	0.00	29.880 
02:45	64.7	64.7	64.7	72	55.5	4	11	270	0.00	29.883 
02:50	64.5	64.5	64.5	73	55.6	4	10	248	0.00	29.883 
02:55	64.5	64.5	64.5	73	55.6	5	13	248	0.00	29.883 
03:00	64.5	64.5	64.5	73	55.6	4	11	270	0.00	29.889 
03:05	64.3	64.3	64.3	73	55.5	3	6	248	0.00	29.889 
03:10	64.2	64.2	64.2	74	55.7	3	6	248	0.00	29.889 
03:15	64.2	64.2	64.2	74	55.7	4	8	270	0.00	29.891 
03:20	64.0	64.0	64.0	75	55.9	3	8	248	0.00	29.891 
03:25	63.9	63.9	63.9	75	55.8	3	11	248	0.00	29.891 
03:30	63.9	63.9	63.9	76	56.2	3	7	248	0.00	29.897 
03:35	63.7	63.7	63.7	76	56.0	3	4	248	0.00	29.897 
03:40	63.7	63.7	63.7	76	56.0	3	6	248	0.00	29.897 
03:45	63.5	63.5	63.5	76	55.8	2	5	248	0.00	29.899 
03:50	63.5	63.5	63.5	77	56.2	3	4	248	0.00	29.899 
03:55	63.4	63.4	63.4	77	56.1	2	5	248	0.00	29.899 
04:00	63.4	63.4	63.4	77	56.1	3	7	270	0.00	29.914 
04:05	63.2	63.2	63.2	76	55.5	3	7	292	0.00	29.914 
04:10	62.6	62.6	62.6	73	53.8	4	9	292	0.00	29.914 
04:15	62.1	62.1	62.1	71	52.6	3	7	270	0.00	29.918 
04:20	61.6	61.6	61.6	71	52.1	3	9	338	0.00	29.918 
04:25	61.3	61.3	61.3	72	52.2	1	3	338	0.00	29.918 
04:30	60.5	60.5	60.5	68	49.9	2	5	270	0.00	29.931 
04:35	59.9	59.9	59.9	66	48.5	1	4	338	0.00	29.931 
04:40	59.3	59.3	59.3	65	47.5	3	9	270	0.00	29.931 
04:45	58.9	58.9	58.9	64	46.7	2	10	270	0.00	29.937 
04:50	58.3	58.3	58.3	65	46.6	2	6	315	0.00	29.937 
04:55	57.6	57.6	57.6	65	45.9	2	7	338	0.00	29.937 
05:00	57.2	57.2	57.2	66	45.9	2	5	315	0.00	29.954 
05:05	56.6	56.6	56.6	66	45.4	3	7	338	0.00	29.954 
05:10	56.2	56.2	56.2	66	45.0	3	8	315	0.00	29.954 
05:15	55.9	55.9	55.9	67	45.1	2	6	315	0.00	29.968 
05:20	55.4	55.4	55.4	68	45.0	2	5	315	0.00	29.968 
05:25	55.1	55.1	55.1	69	45.1	2	9	270	0.00	29.968 
05:30	54.7	54.7	54.7	69	44.7	2	5	270	0.00	29.978 
05:35	54.2	54.2	54.2	69	44.3	2	4	270	0.00	29.978 
05:40	53.9	53.9	53.9	68	43.6	2	5	270	0.00	29.978 
05:45	53.5	53.5	53.5	68	43.2	2	3	315	0.00	29.994 
05:50	53.2	53.2	53.2	68	42.9	2	4	315	0.00	29.994 
05:55	52.9	52.9	52.9	69	43.0	1	4	338	0.00	29.994 
06:00	52.8	52.8	52.8	70	43.3	2	4	338	0.00	30.003 
06:05	52.5	52.5	52.5	71	43.4	1	5	270	0.00	30.003 
06:10	52.2	52.2	52.2	71	43.1	2	4	338	0.00	30.003 
06:15	51.9	51.9	51.9	71	42.8	1	3	270	0.00	30.016 
06:20	51.6	51.6	51.6	72	42.9	1	3	315	0.00	30.016 
06:25	51.3	51.3	51.3	72	42.6	0	1	315	0.00	30.016 
06:30	51.0	51.0	51.0	73	42.7	0	3	315	0.00	30.015 
06:35	50.7	50.7	50.7	73	42.4	0	3	315	0.00	30.015 
06:40	50.4	50.4	50.4	72	41.7	1	5	270	0.00	30.015 
06:45	50.1	50.1	50.1	72	41.4	1	3	248	0.00	30.020 
06:50	49.9	49.9	49.9	72	41.2	0	3	270	0.00	30.020 
06:55	49.6	49.6	49.6	73	41.3	0	2	270	0.00	30.020 
07:00	49.5	49.5	49.5	73	41.2	0	0	---	0.00	30.030 
07:05	49.2	49.2	49.2	73	40.9	0	0	---	0.00	30.030 
07:10	48.9	48.9	48.9	74	41.0	0	3	270	0.00	30.030 
07:15	48.9	48.9	48.9	74	41.0	0	2	270	0.00	30.042 
07:20	48.8	48.8	48.8	74	40.9	1	3	270	0.00	30.042 
07:25	48.6	48.6	48.6	74	40.7	1	3	270	0.00	30.042 
07:30	48.5	48.5	48.5	74	40.6	1	3	315	0.00	30.054 
07:35	48.3	48.3	48.3	74	40.4	0	2	315	0.00	30.054 
07:40	48.2	48.2	48.2	75	40.7	0	2	315	0.00	30.054 
07:45	48.0	48.0	48.0	75	40.5	0	0	---	0.00	30.056 
07:50	47.9	47.9	47.9	75	40.4	0	0	---	0.00	30.056 
07:55	47.6	47.6	47.6	76	40.4	0	2	315	0.00	30.056 
08:00	47.4	47.4	47.4	77	40.6	0	2	315	0.00	30.066 
08:05	47.3	47.3	47.3	77	40.5	0	0	---	0.00	30.066 
08:10	47.0	47.0	47.0	77	40.2	0	0	---	0.00	30.066 
08:15	46.8	46.8	46.8	77	40.0	0	1	315	0.00	30.071 
08:20	46.7	46.7	46.7	78	40.2	0	0	---	0.00	30.071 
08:25	46.7	46.7	46.7	78	40.2	0	0	---	0.00	30.071 
08:30	46.5	46.5	46.5	78	40.0	0	1	315	0.00	30.085 
08:35	46.5	46.5	46.5	78	40.0	0	1	315	0.00	30.085 
08:40	46.7	46.7	46.7	78	40.2	0	0	---	0.00	30.085 
08:45	46.8	46.8	46.8	77	40.0	0	1	315	0.00	30.091 
08:50	47.1	47.1	47.1	77	40.3	0	0	---	0.00	30.091 
08:55	47.4	47.4	47.4	76	40.2	0	1	315	0.00	30.091 
09:00	47.7	47.7	47.7	76	40.5	0	1	315	0.00	30.099 
09:05	48.0	48.0	48.0	76	40.8	0	2	315	0.00	30.099 
09:10	48.3	48.3	48.3	75	40.7	0	1	315	0.00	30.099 
09:15	48.5	48.5	48.5	75	40.9	0	2	292	0.00	30.092 
09:20	48.8	48.8	48.8	75	41.2	1	2	270	0.00	30.092 
09:25	48.9	48.9	48.9	73	40.6	0	2	315	0.00	30.092 
09:30	49.2	49.2	49.2	72	40.6	0	2	315	0.00	30.094 
09:35	49.5	49.5	49.5	72	40.9	0	2	315	0.00	30.094 
09:40	49.6	49.6	49.6	70	40.2	1	3	315	0.00	30.094 
09:45	49.8	49.8	49.8	69	40.0	1	3	338	0.00	30.099 
09:50	49.9	49.9	49.9	69	40.1	1	3	338	0.00	30.099 
09:55	50.2	50.2	50.2	67	39.7	1	4	315	0.00	30.099 
10:00	50.4	50.4	50.4	66	39.5	1	3	338	0.00	30.103 
10:05	50.8	50.8	50.8	66	39.9	1	2	338	0.00	30.103 
10:10	51.3	51.3	51.3	64	39.5	1	2	338	0.00	30.103 
10:15	51.6	51.6	51.6	62	39.0	1	3	338	0.00	30.105 
10:20	51.9	51.9	51.9	62	39.3	1	3	0	0.00	30.105 
10:25	52.2	52.2	52.2	60	38.7	1	3	338	0.00	30.105 
10:30	52.3	52.3	52.3	57	37.5	2	5	338	0.00	30.106 
10:35	52.9	52.9	52.9	58	38.5	1	4	338	0.00	30.106 
10:40	53.3	53.3	53.3	55	37.5	1	3	248	0.00	30.106 
10:45	53.8	53.8	53.8	54	37.5	0	3	248	0.00	30.105 
10:50	54.4	54.4	54.4	51	36.7	1	3	270	0.00	30.105 
10:55	55.0	55.0	55.0	51	37.2	0	2	270	0.00	30.105 
11:00	55.1	55.1	55.1	49	36.3	1	3	270	0.00	30.105 
11:05	55.3	55.3	55.3	46	34.9	1	3	0	0.00	30.105 
11:10	55.7	55.7	55.7	46	35.2	1	3	315	0.00	30.105 
11:15	55.9	55.9	55.9	46	35.4	2	4	270	0.00	30.100 
11:20	56.2	56.2	56.2	43	34.0	1	3	270	0.00	30.100 
11:25	56.5	56.5	56.5	45	35.4	1	3	338	0.00	30.100 
11:30	56.7	56.7	56.7	44	35.0	1	3	338	0.00	30.102 
11:35	56.9	56.9	56.9	44	35.2	2	5	292	0.00	30.102 
11:40	57.0	57.0	57.0	45	35.9	1	4	292	0.00	30.102 
11:45	57.5	57.5	57.5	45	36.3	1	5	292	0.00	30.109 
11:50	57.3	57.3	57.3	44	35.6	1	4	315	0.00	30.109 
11:55	57.5	57.5	57.5	43	35.2	2	5	315	0.00	30.109 
12:00	57.8	57.8	57.8	44	36.0	2	5	338	0.00	30.104 
12:05	57.6	57.6	57.6	43	35.3	1	4	292	0.00	30.104 
12:10	58.0	58.0	58.0	42	35.0	1	3	315	0.00	30.104 
12:15	58.4	58.4	58.4	41	34.8	1	2	248	0.00	30.071 
12:20	58.4	58.4	58.4	41	34.8	1	4	292	0.00	30.071 
12:25	58.7	58.7	58.7	42	35.7	1	4	338	0.00	30.071 
12:30	59.2	59.2	59.2	39	34.3	1	3	270	0.00	30.073 
12:35	59.5	59.5	59.5	41	35.8	1	3	338	0.00	30.073 
12:40	59.6	59.6	59.6	41	35.9	1	3	315	0.00	30.073 
12:45	59.8	59.8	59.8	37	33.5	2	5	315	0.00	30.089 
12:50	59.8	59.8	59.8	38	34.1	2	5	270	0.00	30.089 
12:55	59.6	59.6	59.6	39	34.6	1	4	270	0.00	30.089 
13:00	59.8	59.8	59.8	38	34.1	2	4	315	0.00	30.095 
13:05	60.1	60.1	60.1	39	35.1	2	4	270	0.00	30.095 
13:10	60.4	60.4	60.4	36	33.3	2	4	270	0.00	30.095 
13:15	60.1	60.1	60.1	37	33.7	2	7	338	0.00	30.097 
13:20	60.1	60.1	60.1	39	35.1	1	4	338	0.00	30.097 
13:25	60.9	60.9	60.9	37	34.5	2	5	270	0.00	30.097 
13:30	61.0	61.0	61.0	37	34.5	2	5	315	0.00	30.093 
13:35	61.3	61.3	61.3	36	34.1	2	4	315	0.00	30.093 
13:40	61.3	61.3	61.3	35	33.4	3	5	248	0.00	30.093 
13:45	61.3	61.3	61.3	36	34.1	2	5	292	0.00	30.094 
13:50	61.2	61.2	61.2	36	34.0	1	3	338	0.00	30.094 
13:55	61.2	61.2	61.2	38	35.4	2	4	248	0.00	30.094 
14:00	61.2	61.2	61.2	35	33.3	2	7	248	0.00	30.088 
14:05	61.0	61.0	61.0	34	32.4	3	6	270	0.00	30.088 
14:10	60.9	60.9	60.9	34	32.3	3	5	270	0.00	30.088 
14:15	60.4	60.4	60.4	36	33.3	2	5	292	0.00	30.096 
14:20	60.2	60.2	60.2	37	33.8	2	4	292	0.00	30.096 
14:25	59.9	59.9	59.9	37	33.6	2	4	248	0.00	30.096 
14:30	59.3	59.3	59.3	35	31.7	3	7	270	0.00	30.102 
14:35	58.7	58.7	58.7	36	31.8	3	5	270	0.00	30.102 
14:40	58.3	58.3	58.3	38	32.8	2	5	270	0.00	30.102 
14:45	58.0	58.0	58.0	37	31.9	2	5	270	0.00	30.100 
14:50	57.6	57.6	57.6	37	31.5	2	5	292	0.00	30.100 
14:55	57.5	57.5	57.5	38	32.1	3	5	270	0.00	30.100 
15:00	57.2	57.2	57.2	37	31.2	2	5	270	0.00	30.095 
15:05	57.2	57.2	57.2	39	32.5	2	5	270	0.00	30.095 
15:10	56.9	56.9	56.9	40	32.8	2	6	270	0.00	30.095 
15:15	56.9	56.9	56.9	41	33.4	2	6	248	0.00	30.101 
15:20	56.9	56.9	56.9	43	34.6	2	5	248	0.00	30.101 
15:25	56.7	56.7	56.7	44	35.0	2	4	248	0.00	30.101 
15:30	56.9	56.9	56.9	46	36.3	2	4	270	0.00	30.090 
15:35	56.9	56.9	56.9	45	35.8	2	5	270	0.00	30.090 
15:40	57.0	57.0	57.0	45	35.9	3	6	270	0.00	30.090 
15:45	57.0	57.0	57.0	45	35.9	2	5	270	0.00	30.096 
15:50	57.5	57.5	57.5	46	36.9	2	4	270	0.00	30.096 
15:55	57.3	57.3	57.3	45	36.1	3	5	270	0.00	30.096 
16:00	57.2	57.2	57.2	47	37.2	2	5	270	0.00	30.098 
16:05	57.0	57.0	57.0	47	37.0	2	6	270	0.00	30.098 
16:10	56.9	56.9	56.9	46	36.3	3	5	292	0.00	30.098 
16:15	56.6	56.6	56.6	46	36.1	3	7	270	0.00	30.109 
16:20	56.3	56.3	56.3	45	35.2	3	6	270	0.00	30.109 
16:25	56.2	56.2	56.2	48	36.8	2	5	270	0.00	30.109 
16:30	55.9	55.9	55.9	48	36.5	3	5	270	0.00	30.114 
16:35	55.7	55.7	55.7	48	36.3	2	4	292	0.00	30.114 
16:40	55.6	55.6	55.6	48	36.2	3	6	315	0.00	30.114 
16:45	55.6	55.6	55.6	47	35.7	2	5	270	0.00	30.119 
16:50	55.6	55.6	55.6	47	35.7	3	6	270	0.00	30.119 
16:55	55.7	55.7	55.7	46	35.2	2	5	248	0.00	30.119 
17:00	55.7	55.7	55.7	48	36.3	2	6	270	0.00	30.122 
17:05	55.6	55.6	55.6	47	35.7	3	5	270	0.00	30.122 
17:10	55.4	55.4	55.4	47	35.5	3	7	270	0.00	30.122 
17:15	55.4	55.4	55.4	46	35.0	3	6	270	0.00	30.128 
17:20	55.1	55.1	55.1	46	34.7	3	6	270	0.00	30.128 
17:25	55.0	55.0	55.0	47	35.1	2	5	270	0.00	30.128 
17:30	55.1	55.1	55.1	48	35.8	2	6	270	0.00	30.124 
17:35	55.1	55.1	55.1	48	35.8	2	5	248	0.00	30.124 
17:40	55.1	55.1	55.1	47	35.2	2	4	315	0.00	30.124 
17:45	55.3	55.3	55.3	47	35.4	2	5	270	0.00	30.129 
17:50	55.1	55.1	55.1	49	36.3	3	6	315	0.00	30.129 
17:55	54.7	54.7	54.7	48	35.4	3	6	338	0.00	30.129 
18:00	54.5	54.5	54.5	47	34.7	3	7	270	0.00	30.133 
18:05	54.2	54.2	54.2	46	33.9	2	6	270	0.00	30.133 
18:10	54.1	54.1	54.1	45	33.2	2	6	315	0.00	30.133 
18:15	54.1	54.1	54.1	44	32.7	3	6	270	0.00	30.144 
18:20	54.1	54.1	54.1	45	33.2	3	5	270	0.00	30.144 
18:25	53.9	53.9	53.9	45	33.1	3	5	270	0.00	30.144 
18:30	53.9	53.9	53.9	46	33.6	2	6	270	0.00	30.148 
18:35	53.8	53.8	53.8	44	32.4	2	5	315	0.00	30.148 
18:40	53.5	53.5	53.5	46	33.2	2	5	338	0.00	30.148 
18:45	53.2	53.2	53.2	46	33.0	2	4	270	0.00	30.158 
18:50	52.8	52.8	52.8	47	33.1	3	5	270	0.00	30.158 
18:55	52.5	52.5	52.5	49	33.9	2	5	292	0.00	30.158 
19:00	52.3	52.3	52.3	50	34.2	2	4	248	0.00	30.161 
19:05	52.2	52.2	52.2	51	34.6	1	3	225	0.00	30.161 
19:10	52.0	52.0	52.0	52	34.9	2	5	270	0.00	30.161 
19:15	51.7	51.7	51.7	53	35.1	2	5	248	0.00	30.173 
19:20	51.6	51.6	51.6	53	35.0	2	4	315	0.00	30.173 
19:25	51.4	51.4	51.4	54	35.3	2	6	292	0.00	30.173 
19:30	51.3	51.3	51.3	54	35.2	1	4	292	0.00	30.182 
19:35	51.0	51.0	51.0	52	34.0	2	5	292	0.00	30.182 
19:40	50.5	50.5	50.5	50	32.6	2	7	338	0.00	30.182 
19:45	49.9	49.9	49.9	48	31.0	3	6	292	0.00	30.193 
19:50	49.4	49.4	49.4	48	30.5	2	5	315	0.00	30.193 
19:55	48.9	48.9	48.9	48	30.1	2	5	315	0.00	30.193 
20:00	48.5	48.5	48.5	49	30.2	2	5	248	0.00	30.198 
20:05	48.2	48.2	48.2	50	30.4	2	4	338	0.00	30.198 
20:10	47.9	47.9	47.9	51	30.7	2	5	315	0.00	30.198 
20:15	47.6	47.6	47.6	53	31.3	1	3	0	0.00	30.196 
20:20	47.1	47.1	47.1	54	31.3	1	4	315	0.00	30.196 
20:25	46.8	46.8	46.8	55	31.5	2	5	270	0.00	30.196 
20:30	46.7	46.7	46.7	56	31.8	1	4	338	0.00	30.201 
20:35	46.4	46.4	46.4	56	31.6	2	5	270	0.00	30.201 
20:40	46.2	46.2	46.2	57	31.8	2	5	292	0.00	30.201 
20:45	46.0	46.0	46.0	57	31.6	2	5	270	0.00	30.209 
20:50	45.7	45.7	45.7	57	31.3	2	5	338	0.00	30.209 
20:55	45.4	45.4	45.4	58	31.5	2	4	315	0.00	30.209 
21:00	45.2	45.2	45.2	58	31.3	3	7	338	0.00	30.220 
21:05	44.9	44.9	44.9	59	31.5	2	4	292	0.00	30.220 
21:10	44.6	44.6	44.6	60	31.6	2	6	315	0.00	30.220 
21:15	44.5	44.5	44.5	60	31.5	3	7	292	0.00	30.225 
21:20	44.2	44.2	44.2	60	31.2	2	6	292	0.00	30.225 
21:25	43.9	43.9	43.9	61	31.3	2	5	338	0.00	30.225 
21:30	43.8	43.8	43.8	61	31.2	2	4	270	0.00	30.233 
21:35	43.5	43.5	43.5	61	31.0	2	7	270	0.00	30.233 
21:40	43.3	43.3	43.3	61	30.8	2	6	292	0.00	30.233 
21:45	43.1	43.1	43.1	62	31.0	2	7	270	0.00	30.248 
21:50	42.9	42.9	42.9	62	30.8	2	6	292	0.00	30.248 
21:55	42.6	42.6	42.6	62	30.5	1	4	292	0.00	30.248 
22:00	42.5	42.5	42.5	62	30.4	2	6	338	0.00	30.251 
22:05	42.3	42.3	42.3	62	30.2	1	2	292	0.00	30.251 
22:10	42.2	42.2	42.2	62	30.1	2	7	270	0.00	30.251 
22:15	42.1	42.1	42.1	62	30.0	2	5	315	0.00	30.255 
22:20	41.9	41.9	41.9	63	30.2	1	4	315	0.00	30.255 
22:25	41.8	41.8	41.8	63	30.1	1	3	338	0.00	30.255 
22:30	41.6	41.6	41.6	63	30.0	1	3	292	0.00	30.261 
22:35	41.5	41.5	41.5	63	29.9	1	4	270	0.00	30.261 
22:40	41.3	41.3	41.3	64	30.1	1	4	270	0.00	30.261 
22:45	41.2	41.2	41.2	64	30.0	2	6	270	0.00	30.264 
22:50	41.2	41.2	41.2	64	30.0	1	3	0	0.00	30.264 
22:55	40.9	40.9	40.9	65	30.1	1	3	270	0.00	30.264 
23:00	40.8	40.8	40.8	65	30.0	0	4	338	0.00	30.268 
23:05	40.6	40.6	40.6	65	29.8	1	3	292	0.00	30.268 
23:10	40.5	40.5	40.5	66	30.0	1	3	315	0.00	30.268 
23:15	40.3	40.3	40.3	66	29.9	1	4	270	0.00	30.273 
23:20	40.2	40.2	40.2	66	29.8	0	3	248	0.00	30.273 
23:25	40.1	40.1	40.1	67	30.0	1	3	248	0.00	30.273 
23:30	39.9	39.9	39.9	67	29.8	0	2	270	0.00	30.277 
23:35	39.8	39.8	39.8	68	30.1	1	2	270	0.00	30.277 
23:40	39.6	39.6	39.6	68	29.9	1	2	315	0.00	30.277 
23:45	39.5	39.5	39.5	68	29.8	0	2	315	0.00	30.281 
23:50	39.3	39.3	39.3	69	30.0	0	3	315	0.00	30.281 
23:55	39.2	39.2	39.2	69	29.9	1	3	315	0.00	30.281 

CoCoRaHS
IN-AL-39
A2 Web Hosting
Creative Commons License
GoDaddy
search engine by freefind advanced

loaded 2018-11-18 11:10:33 • last modified 2010-11-18 10:43:29
Privacy PolicyDisclaimer
• wx.awcolley.com is powered by PmWiki v.2002016 •
• all content (unless otherwise noted) © 2018 A W Colley